Time;durP1;ratioP1;P1;durP2;ratioP2;P2;SDS_P1;SDS_P2;PMS_P1;PMS_P2;Temp;Humidity;BMP_temperature;BMP_pressure;BME280_temperature;BME280_humidity;BME280_pressure;Samples;Min_cycle;Max_cycle;Signal;HPM_P1;HPM_P2
2022/07/25 00:01:44;;;;;;;2.80;2.37;;;22.80;99.90;;;;;;5073147;28;20213;-80
2022/07/25 00:04:13;;;;;;;3.07;2.20;;;22.70;99.90;;;;;;5073169;28;20475;-80
2022/07/25 00:06:40;;;;;;;3.23;2.27;;;22.70;99.90;;;;;;5073195;28;20817;-80
2022/07/25 00:09:08;;;;;;;2.50;2.10;;;22.60;99.90;;;;;;5073063;28;20464;-80
2022/07/25 00:11:35;;;;;;;1.83;1.40;;;22.60;99.90;;;;;;5073135;28;20440;-80
2022/07/25 00:14:02;;;;;;;3.67;2.87;;;22.50;99.90;;;;;;5073367;28;20447;-80
2022/07/25 00:16:28;;;;;;;2.60;2.07;;;22.50;99.90;;;;;;5073159;28;20459;-80
2022/07/25 00:18:55;;;;;;;5.00;2.10;;;22.40;99.90;;;;;;5075017;28;20468;-80
2022/07/25 00:21:22;;;;;;;5.60;1.80;;;22.30;99.90;;;;;;5076933;28;20525;-80
2022/07/25 00:23:49;;;;;;;2.10;1.67;;;22.30;99.90;;;;;;5076660;28;20444;-80
2022/07/25 00:26:17;;;;;;;8.63;2.30;;;22.30;99.90;;;;;;5076926;28;20444;-80
2022/07/25 00:28:44;;;;;;;4.03;1.80;;;22.20;99.90;;;;;;5076433;28;21048;-79
2022/07/25 00:31:10;;;;;;;3.67;1.80;;;22.20;99.90;;;;;;5076790;28;20448;-80
2022/07/25 00:33:38;;;;;;;2.67;2.43;;;22.20;99.90;;;;;;5076753;28;20444;-80
2022/07/25 00:36:06;;;;;;;1.50;1.03;;;22.20;99.90;;;;;;5076705;28;20497;-80
2022/07/25 00:38:33;;;;;;;3.80;2.03;;;22.10;99.90;;;;;;5076603;28;20460;-80
2022/07/25 00:41:00;;;;;;;4.97;2.70;;;22.10;99.90;;;;;;5076320;28;20496;-80
2022/07/25 00:43:28;;;;;;;2.37;1.70;;;22.10;99.90;;;;;;5076546;28;20455;-80
2022/07/25 00:45:54;;;;;;;3.67;2.60;;;22.00;99.90;;;;;;5076755;28;20455;-80
2022/07/25 00:48:21;;;;;;;3.73;2.20;;;22.00;99.90;;;;;;5076093;28;20974;-80
2022/07/25 00:50:48;;;;;;;5.77;2.70;;;22.00;99.90;;;;;;5076391;28;20443;-80
2022/07/25 00:53:15;;;;;;;2.67;2.37;;;22.00;99.90;;;;;;5076385;28;20448;-80
2022/07/25 00:55:42;;;;;;;3.90;2.10;;;21.90;99.90;;;;;;5076298;28;20451;-80
2022/07/25 00:58:08;;;;;;;1.73;1.63;;;22.00;99.90;;;;;;5075927;28;20837;-80
2022/07/25 01:00:37;;;;;;;3.70;2.10;;;21.90;99.90;;;;;;5076159;28;20486;-80
2022/07/25 01:03:04;;;;;;;2.10;1.40;;;21.90;99.90;;;;;;5076172;28;20452;-80
2022/07/25 01:05:31;;;;;;;5.30;2.63;;;21.80;99.90;;;;;;5075892;28;20440;-80
2022/07/25 01:07:58;;;;;;;4.33;2.23;;;21.90;99.90;;;;;;5076104;28;20810;-80
2022/07/25 01:10:24;;;;;;;3.80;2.67;;;21.80;99.90;;;;;;5076015;28;20463;-80
2022/07/25 01:12:53;;;;;;;4.20;2.27;;;21.80;99.90;;;;;;5075999;28;20448;-80
2022/07/25 01:15:21;;;;;;;3.13;1.80;;;21.80;99.90;;;;;;5075691;28;20455;-80
2022/07/25 01:17:50;;;;;;;2.80;1.80;;;21.80;99.90;;;;;;5075643;28;20939;-80
2022/07/25 01:20:19;;;;;;;2.03;1.90;;;21.80;99.90;;;;;;5075743;28;20460;-80
2022/07/25 01:22:46;;;;;;;2.90;1.77;;;21.70;99.90;;;;;;5075865;28;20456;-80
2022/07/25 01:25:13;;;;;;;4.10;2.10;;;21.70;99.90;;;;;;5075807;28;20455;-80
2022/07/25 01:27:40;;;;;;;5.97;2.00;;;21.60;99.90;;;;;;5075415;28;20939;-80
2022/07/25 01:30:10;;;;;;;3.70;1.73;;;21.60;99.90;;;;;;5075016;28;20885;-80
2022/07/25 01:32:37;;;;;;;2.30;1.70;;;21.60;99.90;;;;;;5075356;28;20952;-80
2022/07/25 01:35:05;;;;;;;4.20;2.77;;;21.60;99.90;;;;;;5075330;28;20950;-80
2022/07/25 01:37:33;;;;;;;5.03;2.70;;;21.60;99.90;;;;;;5075567;28;20448;-80
2022/07/25 01:40:01;;;;;;;4.90;2.10;;;21.60;99.90;;;;;;5075416;28;20487;-80
2022/07/25 01:42:27;;;;;;;3.00;2.10;;;21.60;99.90;;;;;;5075152;28;21018;-80
2022/07/25 01:44:54;;;;;;;1.90;1.33;;;21.50;99.90;;;;;;5075462;28;20459;-80
2022/07/25 01:47:21;;;;;;;3.83;1.70;;;21.50;99.90;;;;;;5075320;28;20961;-80
2022/07/25 01:49:48;;;;;;;4.30;2.23;;;21.50;99.90;;;;;;5075261;28;20468;-80
2022/07/25 01:52:15;;;;;;;6.87;2.30;;;21.50;99.90;;;;;;5075298;28;20444;-80
2022/07/25 01:54:43;;;;;;;3.90;2.40;;;21.50;99.90;;;;;;5074875;28;20460;-80
2022/07/25 01:57:10;;;;;;;3.60;2.17;;;21.50;99.90;;;;;;5075378;28;20452;-80
2022/07/25 01:59:37;;;;;;;1.93;1.17;;;21.50;99.90;;;;;;5074767;28;20513;-80
2022/07/25 02:02:04;;;;;;;4.20;2.70;;;21.50;99.90;;;;;;5074723;28;20553;-79
2022/07/25 02:04:31;;;;;;;3.07;2.10;;;21.40;99.90;;;;;;5075063;28;20451;-80
2022/07/25 02:06:58;;;;;;;4.37;2.80;;;21.40;99.90;;;;;;5075037;28;20448;-80
2022/07/25 02:09:24;;;;;;;3.53;2.50;;;21.40;99.90;;;;;;5074907;28;20468;-80
2022/07/25 02:11:53;;;;;;;4.27;2.20;;;21.40;99.90;;;;;;5074903;28;20448;-80
2022/07/25 02:14:19;;;;;;;2.30;2.10;;;21.40;99.90;;;;;;5074859;28;20440;-80
2022/07/25 02:16:46;;;;;;;3.50;1.90;;;21.30;99.90;;;;;;5074537;28;20972;-80
2022/07/25 02:19:13;;;;;;;2.17;1.60;;;21.30;99.90;;;;;;5074897;28;20500;-80
2022/07/25 02:21:40;;;;;;;3.40;2.07;;;21.30;99.90;;;;;;5074646;28;20480;-80
2022/07/25 02:24:07;;;;;;;2.67;1.80;;;21.20;99.90;;;;;;5074645;28;20452;-80
2022/07/25 02:26:33;;;;;;;3.23;2.07;;;21.20;99.90;;;;;;5074535;28;20936;-80
2022/07/25 02:29:01;;;;;;;2.50;2.30;;;21.10;99.90;;;;;;5074469;28;20475;-80
2022/07/25 02:31:28;;;;;;;2.97;2.13;;;21.10;99.90;;;;;;5074196;28;20811;-80
2022/07/25 02:33:55;;;;;;;3.93;1.67;;;21.10;99.90;;;;;;5074492;28;20448;-80
2022/07/25 02:36:22;;;;;;;3.07;2.30;;;21.10;99.90;;;;;;5074381;28;20448;-80
2022/07/25 02:38:49;;;;;;;3.03;2.17;;;21.10;99.90;;;;;;5074448;28;20484;-80
2022/07/25 02:41:16;;;;;;;4.33;2.27;;;21.10;99.90;;;;;;5073396;28;20495;-79
2022/07/25 02:43:43;;;;;;;5.23;1.90;;;21.10;99.90;;;;;;5073867;28;20456;-80
2022/07/25 02:46:11;;;;;;;3.20;2.50;;;21.10;99.90;;;;;;5074245;28;20451;-80
2022/07/25 02:48:38;;;;;;;4.60;1.83;;;21.10;99.90;;;;;;5073818;28;20975;-80
2022/07/25 02:51:04;;;;;;;3.63;2.30;;;21.10;99.90;;;;;;5074193;28;20425;-80
2022/07/25 02:53:31;;;;;;;3.50;1.73;;;21.10;99.90;;;;;;5073768;28;20825;-80
2022/07/25 02:55:58;;;;;;;5.43;2.40;;;21.00;99.90;;;;;;5074068;28;20456;-80
2022/07/25 02:58:24;;;;;;;2.70;1.80;;;21.00;99.90;;;;;;5074171;28;20444;-80
2022/07/25 03:00:51;;;;;;;3.60;2.07;;;21.00;99.90;;;;;;5073921;28;20448;-80
2022/07/25 03:03:19;;;;;;;6.20;2.50;;;21.00;99.90;;;;;;5073925;28;20444;-80
2022/07/25 03:05:46;;;;;;;6.00;2.57;;;21.00;99.90;;;;;;5073861;28;20483;-80
2022/07/25 03:08:13;;;;;;;2.67;1.73;;;21.00;99.90;;;;;;5074027;28;20444;-80
2022/07/25 03:10:39;;;;;;;2.30;1.70;;;21.00;99.90;;;;;;5073521;28;20483;-80
2022/07/25 03:13:06;;;;;;;2.77;2.33;;;21.00;99.90;;;;;;5073770;28;20444;-80
2022/07/25 03:15:33;;;;;;;3.70;2.07;;;21.00;99.90;;;;;;5073747;28;20448;-80
2022/07/25 03:17:59;;;;;;;4.03;2.23;;;21.00;99.90;;;;;;5073722;28;20456;-80
2022/07/25 03:20:28;;;;;;;3.10;1.97;;;20.90;99.90;;;;;;5073650;28;20464;-80
2022/07/25 03:22:54;;;;;;;4.77;2.50;;;20.90;99.90;;;;;;5073563;28;20480;-80
2022/07/25 03:25:21;;;;;;;4.20;1.70;;;20.80;99.90;;;;;;5073628;28;20445;-80
2022/07/25 03:27:48;;;;;;;2.97;2.70;;;20.80;99.90;;;;;;5073586;28;20476;-80
2022/07/25 03:30:15;;;;;;;6.27;3.17;;;20.80;99.90;;;;;;5073486;28;20472;-80
2022/07/25 03:32:41;;;;;;;5.50;2.70;;;20.70;99.90;;;;;;5073230;28;20932;-79
2022/07/25 03:35:09;;;;;;;10.03;2.97;;;20.70;99.90;;;;;;5073518;28;20472;-80
2022/07/25 03:37:37;;;;;;;1.97;1.87;;;20.70;99.90;;;;;;5073130;28;20817;-80
2022/07/25 03:40:04;;;;;;;4.10;1.70;;;20.60;99.90;;;;;;5073168;28;20495;-80
2022/07/25 03:42:31;;;;;;;4.33;2.83;;;20.60;99.90;;;;;;5073337;28;20484;-80
2022/07/25 03:44:57;;;;;;;2.70;1.90;;;20.50;99.90;;;;;;5073395;28;20448;-80
2022/07/25 03:47:24;;;;;;;9.87;2.50;;;20.50;99.90;;;;;;5073067;28;20944;-80
2022/07/25 03:49:51;;;;;;;4.40;2.00;;;20.50;99.90;;;;;;5073274;28;20491;-80
2022/07/25 03:52:17;;;;;;;5.03;2.40;;;20.50;99.90;;;;;;5072982;28;20441;-80
2022/07/25 03:54:45;;;;;;;3.70;2.80;;;20.40;99.90;;;;;;5079468;28;20493;-80
2022/07/25 03:57:12;;;;;;;2.00;1.80;;;20.40;99.90;;;;;;5079942;28;20451;-80
2022/07/25 03:59:39;;;;;;;2.57;2.37;;;20.40;99.90;;;;;;5079894;28;20546;-80
2022/07/25 04:02:06;;;;;;;4.40;2.97;;;20.40;99.90;;;;;;5079849;28;20532;-80
2022/07/25 04:04:32;;;;;;;4.33;2.50;;;20.40;99.90;;;;;;5079887;28;20451;-80
2022/07/25 04:06:59;;;;;;;4.87;2.80;;;20.40;99.90;;;;;;5079880;28;20480;-80
2022/07/25 04:09:26;;;;;;;4.00;2.80;;;20.40;99.90;;;;;;5079477;28;21005;-80
2022/07/25 04:11:54;;;;;;;3.53;2.10;;;20.30;99.90;;;;;;5079574;28;20819;-80
2022/07/25 04:14:21;;;;;;;6.17;2.83;;;20.30;99.90;;;;;;5079804;28;20456;-80
2022/07/25 04:16:47;;;;;;;3.00;2.63;;;20.30;99.90;;;;;;5079775;28;20525;-80
2022/07/25 04:19:14;;;;;;;2.40;1.93;;;20.30;99.90;;;;;;5079684;28;20464;-80
2022/07/25 04:21:41;;;;;;;2.50;2.37;;;20.30;99.90;;;;;;5079651;28;20479;-80
2022/07/25 04:24:08;;;;;;;3.87;2.70;;;20.30;99.90;;;;;;5079736;28;20440;-80
2022/07/25 04:26:34;;;;;;;2.00;1.60;;;20.40;99.90;;;;;;5079692;28;20459;-80
2022/07/25 04:29:03;;;;;;;3.87;2.03;;;20.40;99.90;;;;;;5079615;28;20464;-80
2022/07/25 04:31:29;;;;;;;3.50;2.43;;;20.40;99.90;;;;;;5079618;28;20956;-79
2022/07/25 04:33:56;;;;;;;2.70;1.80;;;20.40;99.90;;;;;;5079622;28;20448;-80
2022/07/25 04:36:23;;;;;;;2.90;2.40;;;20.40;99.90;;;;;;5079699;28;20451;-80
2022/07/25 04:38:49;;;;;;;1.93;1.60;;;20.50;99.90;;;;;;5079498;28;20464;-80
2022/07/25 04:41:16;;;;;;;3.77;1.83;;;20.50;99.90;;;;;;5079310;28;20484;-80
2022/07/25 04:43:43;;;;;;;4.33;2.50;;;20.50;99.90;;;;;;5079200;28;20966;-80
2022/07/25 04:46:11;;;;;;;4.50;2.27;;;20.50;99.90;;;;;;5079208;28;20962;-80
2022/07/25 04:48:38;;;;;;;4.17;2.23;;;20.60;99.90;;;;;;5079464;28;20487;-80
2022/07/25 04:51:06;;;;;;;3.13;2.87;;;20.60;99.90;;;;;;5079083;28;20800;-80
2022/07/25 04:53:33;;;;;;;4.77;1.93;;;20.70;99.90;;;;;;5079067;28;20497;-80
2022/07/25 04:55:59;;;;;;;4.10;1.87;;;20.70;99.90;;;;;;5079432;28;20439;-80
2022/07/25 04:58:26;;;;;;;2.60;2.03;;;20.80;99.90;;;;;;5079066;28;20444;-80
2022/07/25 05:00:53;;;;;;;3.40;2.63;;;20.80;99.90;;;;;;5079383;28;20475;-80
2022/07/25 05:03:21;;;;;;;3.27;2.23;;;20.80;99.90;;;;;;5079287;28;20479;-80
2022/07/25 05:05:48;;;;;;;3.27;2.10;;;20.90;99.90;;;;;;5075915;28;20455;-80
2022/07/25 05:08:15;;;;;;;4.30;2.43;;;21.00;99.90;;;;;;5076190;28;20448;-80
2022/07/25 05:10:41;;;;;;;2.50;1.90;;;21.00;99.90;;;;;;5076096;28;20451;-80
2022/07/25 05:13:08;;;;;;;5.37;2.47;;;21.10;99.90;;;;;;5076046;28;20448;-80
2022/07/25 05:15:35;;;;;;;3.90;2.07;;;21.10;99.90;;;;;;5076027;28;20444;-80
2022/07/25 05:18:02;;;;;;;5.17;2.93;;;21.20;99.90;;;;;;5075956;28;20448;-80
2022/07/25 05:20:30;;;;;;;2.93;1.70;;;21.20;99.90;;;;;;5075547;28;20990;-80
2022/07/25 05:22:57;;;;;;;3.00;2.33;;;21.20;99.90;;;;;;5075671;28;20935;-80
2022/07/25 05:25:24;;;;;;;3.33;2.00;;;21.30;99.90;;;;;;5075800;28;20452;-80
2022/07/25 05:27:53;;;;;;;5.17;2.73;;;21.40;99.90;;;;;;5075476;28;20451;-80
2022/07/25 05:30:20;;;;;;;3.67;2.40;;;21.40;99.90;;;;;;5075682;28;20470;-80
2022/07/25 05:32:46;;;;;;;5.20;2.50;;;21.50;99.90;;;;;;5075666;28;20471;-80
2022/07/25 05:35:13;;;;;;;3.50;1.67;;;21.50;99.90;;;;;;5075646;28;20527;-79
2022/07/25 05:37:41;;;;;;;3.37;2.20;;;21.60;99.90;;;;;;5075731;28;20474;-80
2022/07/25 05:40:09;;;;;;;3.00;1.60;;;21.70;99.90;;;;;;5075136;28;20512;-80
2022/07/25 05:42:35;;;;;;;4.90;2.77;;;21.70;99.90;;;;;;5075478;28;20464;-80
2022/07/25 05:45:02;;;;;;;3.27;2.37;;;21.70;99.90;;;;;;5075122;28;20813;-80
2022/07/25 05:47:29;;;;;;;4.30;2.30;;;21.80;99.90;;;;;;5075444;28;20447;-80
2022/07/25 05:49:56;;;;;;;4.53;2.23;;;21.80;99.90;;;;;;5075510;28;20503;-80
2022/07/25 05:52:23;;;;;;;5.97;2.43;;;21.90;99.90;;;;;;5075336;28;20453;-80
2022/07/25 05:54:51;;;;;;;1.70;1.50;;;22.00;99.90;;;;;;5074943;28;20963;-80
2022/07/25 05:57:17;;;;;;;4.57;2.63;;;22.10;99.90;;;;;;5075259;28;20812;-80
2022/07/25 05:59:44;;;;;;;4.87;2.60;;;22.20;99.90;;;;;;5075125;28;20471;-80
2022/07/25 06:02:11;;;;;;;3.23;2.23;;;22.30;99.90;;;;;;5075047;28;20479;-80
2022/07/25 06:04:37;;;;;;;3.80;2.03;;;22.40;99.90;;;;;;5075024;28;20943;-79
2022/07/25 06:07:04;;;;;;;2.77;1.87;;;22.60;99.90;;;;;;5075017;28;20451;-79
2022/07/25 06:09:31;;;;;;;4.60;2.37;;;22.80;99.90;;;;;;5074909;28;20475;-80
2022/07/25 06:11:59;;;;;;;3.87;2.67;;;22.90;99.90;;;;;;5075138;28;20498;-80
2022/07/25 06:14:26;;;;;;;4.97;2.20;;;23.00;99.90;;;;;;5074867;28;20449;-79
2022/07/25 06:16:53;;;;;;;4.40;1.77;;;23.20;99.90;;;;;;5074656;28;20444;-79
2022/07/25 06:19:20;;;;;;;5.17;2.63;;;23.30;99.90;;;;;;5074938;28;20471;-80
2022/07/25 06:21:47;;;;;;;5.83;3.07;;;23.40;99.90;;;;;;5074305;28;20687;-80
2022/07/25 06:24:13;;;;;;;3.10;2.20;;;23.50;99.90;;;;;;5074666;28;20256;-80
2022/07/25 06:26:40;;;;;;;2.20;1.90;;;23.70;99.90;;;;;;5074616;28;20198;-80
2022/07/25 06:29:08;;;;;;;4.10;2.43;;;23.90;99.90;;;;;;5074213;28;20709;-80
2022/07/25 06:31:35;;;;;;;4.30;2.33;;;24.00;99.90;;;;;;5074738;28;20206;-79
2022/07/25 06:34:01;;;;;;;5.43;2.40;;;24.20;99.90;;;;;;5074254;28;20666;-80
2022/07/25 06:36:28;;;;;;;4.00;2.25;;;24.40;99.90;;;;;;5074448;28;20224;-80
2022/07/25 06:38:55;;;;;;;2.40;1.95;;;24.40;99.90;;;;;;5074301;28;20217;-79
2022/07/25 06:41:22;;;;;;;3.42;2.55;;;24.50;99.90;;;;;;5074005;28;20238;-80
2022/07/25 06:43:48;;;;;;;2.17;1.77;;;24.60;99.90;;;;;;5074235;28;20222;-80
2022/07/25 06:46:16;;;;;;;4.38;2.20;;;24.70;99.90;;;;;;5073972;28;20696;-80
2022/07/25 06:48:43;;;;;;;4.18;2.45;;;24.90;99.90;;;;;;5074217;28;20222;-79
2022/07/25 06:51:10;;;;;;;2.88;2.63;;;25.10;99.90;;;;;;5074163;28;20198;-79
2022/07/25 06:53:37;;;;;;;3.95;2.58;;;25.30;99.90;;;;;;5074140;28;20198;-79
2022/07/25 06:56:04;;;;;;;4.93;2.83;;;25.30;99.90;;;;;;5074117;28;20190;-80
2022/07/25 06:58:31;;;;;;;2.08;1.42;;;25.50;99.90;;;;;;5073992;28;20218;-79
2022/07/25 07:00:59;;;;;;;3.85;2.88;;;25.70;99.90;;;;;;5073714;28;20202;-79
2022/07/25 07:03:28;;;;;;;3.60;2.70;;;25.80;99.90;;;;;;5073546;28;20218;-79
2022/07/25 07:05:54;;;;;;;2.38;2.17;;;25.90;99.90;;;;;;5073545;28;20202;-80
2022/07/25 07:08:21;;;;;;;4.47;3.58;;;26.00;99.90;;;;;;5074097;28;20228;-80
2022/07/25 07:10:48;;;;;;;2.30;2.08;;;26.20;99.90;;;;;;5073831;28;20202;-80
2022/07/25 07:13:17;;;;;;;5.68;2.78;;;26.30;99.90;;;;;;5073763;28;20205;-79
2022/07/25 07:15:48;;;;;;;2.78;2.22;;;26.50;99.90;;;;;;5073394;28;20769;-79
2022/07/25 07:18:14;;;;;;;1.75;1.63;;;26.70;99.90;;;;;;5073671;28;20186;-80
2022/07/25 07:20:43;;;;;;;4.03;2.83;;;26.70;99.90;;;;;;5073677;28;20202;-80
2022/07/25 07:23:10;;;;;;;3.50;2.35;;;26.90;99.90;;;;;;5073257;28;20697;-80
2022/07/25 07:25:37;;;;;;;2.60;2.33;;;27.00;99.90;;;;;;5073632;28;20202;-80
2022/07/25 07:28:04;;;;;;;3.05;2.00;;;27.10;99.90;;;;;;5073026;28;20212;-80
2022/07/25 07:30:32;;;;;;;4.30;2.63;;;27.30;99.90;;;;;;5073393;28;20230;-80
2022/07/25 07:32:59;;;;;;;3.60;2.40;;;27.50;99.90;;;;;;5073602;28;20198;-80
2022/07/25 07:35:25;;;;;;;3.05;2.70;;;27.70;99.90;;;;;;5073479;28;20205;-80
2022/07/25 07:37:54;;;;;;;5.43;3.20;;;27.80;99.90;;;;;;5073467;28;20205;-80
2022/07/25 07:40:21;;;;;;;3.83;2.53;;;27.90;99.90;;;;;;5072960;28;20602;-80
2022/07/25 07:42:49;;;;;;;4.75;3.20;;;28.10;99.90;;;;;;5073379;28;20665;-80
2022/07/25 07:45:17;;;;;;;4.35;3.05;;;28.20;99.90;;;;;;5073390;28;20211;-80
2022/07/25 07:47:46;;;;;;;3.28;2.97;;;28.40;99.90;;;;;;5073362;28;20251;-80
2022/07/25 07:50:13;;;;;;;4.15;2.13;;;28.50;99.90;;;;;;5073084;28;20709;-80
2022/07/25 07:52:40;;;;;;;3.10;2.30;;;28.60;99.90;;;;;;5073373;28;20206;-79
2022/07/25 07:57:53;;;;;;;2.53;1.88;;;29.00;99.90;;;;;;5073226;28;20197;-80
2022/07/25 08:00:21;;;;;;;3.47;2.50;;;29.20;99.90;;;;;;5073154;28;20317;-80
2022/07/25 08:02:49;;;;;;;2.25;1.90;;;29.40;99.90;;;;;;5073129;28;20234;-80
2022/07/25 08:05:21;;;;;;;4.00;2.78;;;29.50;99.90;;;;;;5073196;28;20210;-81
2022/07/25 08:07:50;;;;;;;3.63;2.58;;;29.80;99.90;;;;;;5073200;28;20226;-80
2022/07/25 08:10:19;;;;;;;4.60;2.97;;;29.90;99.90;;;;;;5072784;28;20634;-80
2022/07/25 08:12:46;;;;;;;3.17;2.88;;;30.10;99.90;;;;;;5073139;28;20293;-80
2022/07/25 08:15:13;;;;;;;2.95;2.47;;;30.20;99.90;;;;;;5073120;28;20209;-80
2022/07/25 08:17:40;;;;;;;4.95;3.15;;;30.30;99.90;;;;;;5073043;28;20627;-80
2022/07/25 08:20:07;;;;;;;2.80;2.42;;;30.40;99.90;;;;;;5073069;28;20218;-80
2022/07/25 08:22:39;;;;;;;3.58;2.80;;;30.60;99.90;;;;;;5072978;28;20213;-81
2022/07/25 08:25:07;;;;;;;5.65;3.03;;;30.70;99.90;;;;;;5072723;28;20682;-81
2022/07/25 08:27:36;;;;;;;2.65;2.38;;;30.80;99.90;;;;;;5072915;28;20345;-81
2022/07/25 08:30:03;;;;;;;2.75;2.55;;;30.80;99.90;;;;;;5072900;28;20237;-81
2022/07/25 08:32:30;;;;;;;3.72;2.55;;;30.80;99.80;;;;;;5072965;28;20233;-81
2022/07/25 08:34:58;;;;;;;3.42;2.78;;;30.80;99.90;;;;;;5072808;28;20202;-80
2022/07/25 08:37:25;;;;;;;3.35;2.80;;;30.80;99.00;;;;;;5073029;28;20292;-81
2022/07/25 08:39:51;;;;;;;3.15;2.85;;;30.80;98.80;;;;;;5072778;28;20585;-81
2022/07/25 08:42:19;;;;;;;3.50;2.42;;;30.80;98.90;;;;;;5076608;28;20621;-81
2022/07/25 08:44:54;;;;;;;4.25;2.90;;;30.90;99.20;;;;;;5076430;28;20230;-80
2022/07/25 08:47:22;;;;;;;3.72;2.78;;;31.00;97.90;;;;;;5076557;28;20198;-81
2022/07/25 08:49:49;;;;;;;7.32;2.95;;;31.10;98.70;;;;;;5077055;28;20229;-82
2022/07/25 08:52:17;;;;;;;2.80;2.50;;;31.30;97.90;;;;;;5076396;28;20207;-79
2022/07/25 08:54:45;;;;;;;3.33;2.85;;;31.30;97.00;;;;;;5076086;28;20692;-80
2022/07/25 08:57:12;;;;;;;2.65;2.45;;;31.40;96.90;;;;;;5076429;28;20206;-81
2022/07/25 08:59:39;;;;;;;3.25;3.03;;;31.50;95.80;;;;;;5076364;28;20223;-80
2022/07/25 09:02:09;;;;;;;3.83;3.20;;;31.50;95.60;;;;;;5076227;28;20208;-81
2022/07/25 09:04:36;;;;;;;4.57;2.92;;;31.50;96.40;;;;;;5076214;28;20306;-80
2022/07/25 09:07:04;;;;;;;3.35;2.60;;;31.60;95.70;;;;;;5075878;28;20204;-81
2022/07/25 09:09:33;;;;;;;3.60;2.78;;;31.60;96.40;;;;;;5076052;28;20228;-81
2022/07/25 09:11:59;;;;;;;3.13;2.28;;;31.70;95.60;;;;;;5075712;28;20583;-81
2022/07/25 09:14:28;;;;;;;2.67;2.38;;;31.70;96.10;;;;;;5076068;28;20208;-81
2022/07/25 09:16:55;;;;;;;4.30;3.30;;;32.00;95.30;;;;;;5076064;28;20221;-81
2022/07/25 09:19:25;;;;;;;3.08;2.85;;;32.30;94.10;;;;;;5075937;28;20229;-81
2022/07/25 09:22:00;;;;;;;3.08;2.60;;;32.40;93.30;;;;;;5076301;28;20195;-80
2022/07/25 09:24:27;;;;;;;3.97;2.92;;;32.60;92.70;;;;;;5075751;28;20727;-80
2022/07/25 09:26:56;;;;;;;3.40;2.30;;;32.80;92.60;;;;;;5075851;28;20204;-80
2022/07/25 09:29:25;;;;;;;2.67;2.45;;;32.90;92.10;;;;;;5075599;28;20648;-80
2022/07/25 09:31:54;;;;;;;2.70;2.40;;;33.10;92.00;;;;;;5075681;28;20205;-81
2022/07/25 09:34:36;;;;;;;2.47;2.28;;;33.10;92.20;;;;;;5075732;28;20200;-81
2022/07/25 09:37:05;;;;;;;2.95;2.50;;;33.00;91.30;;;;;;5075408;28;20194;-81
2022/07/25 09:39:40;;;;;;;2.10;1.95;;;33.00;90.20;;;;;;5075531;28;20223;-81
2022/07/25 09:42:21;;;;;;;3.53;2.30;;;33.00;87.00;;;;;;5075574;28;20180;-81
2022/07/25 09:45:06;;;;;;;3.60;2.30;;;33.00;84.00;;;;;;5075442;28;20579;-81
2022/07/25 09:47:36;;;;;;;2.47;2.28;;;33.00;86.00;;;;;;5075530;28;20191;-81
2022/07/25 09:50:06;;;;;;;2.80;2.50;;;33.10;85.90;;;;;;5075360;28;20236;-80
2022/07/25 09:52:34;;;;;;;3.05;2.78;;;33.30;82.10;;;;;;5074923;28;20190;-81
2022/07/25 09:55:04;;;;;;;2.70;2.50;;;33.30;85.30;;;;;;5075278;28;20196;-80
2022/07/25 09:57:31;;;;;;;1.83;1.73;;;33.50;81.00;;;;;;5075474;28;20203;-80
2022/07/25 10:00:00;;;;;;;2.22;2.13;;;33.70;80.00;;;;;;5074852;28;20740;-81
2022/07/25 10:02:39;;;;;;;2.17;1.80;;;33.60;81.30;;;;;;5075171;28;20288;-81
2022/07/25 10:05:14;;;;;;;2.22;1.98;;;33.70;77.00;;;;;;5075076;28;20205;-80
2022/07/25 10:07:45;;;;;;;2.80;2.05;;;33.70;78.00;;;;;;5075126;28;20194;-80
2022/07/25 10:10:23;;;;;;;1.88;1.77;;;33.70;78.30;;;;;;5074970;28;20271;-81
2022/07/25 10:13:04;;;;;;;2.22;1.75;;;33.90;77.00;;;;;;5074652;28;20193;-81
2022/07/25 10:15:43;;;;;;;1.90;1.20;;;34.00;75.90;;;;;;5074676;28;20179;-81
2022/07/25 10:18:10;;;;;;;1.75;1.65;;;34.00;70.20;;;;;;5074815;28;20197;-81
2022/07/25 10:20:38;;;;;;;0.80;0.80;;;34.10;70.30;;;;;;5074756;28;20206;-81
2022/07/25 10:23:16;;;;;;;1.50;1.25;;;34.30;70.00;;;;;;5074657;28;20217;-81
2022/07/25 10:25:44;;;;;;;1.30;1.20;;;34.30;68.10;;;;;;5074705;28;20193;-80
2022/07/25 10:28:11;;;;;;;0.90;0.90;;;34.30;66.30;;;;;;5074804;28;20202;-81
2022/07/25 10:30:40;;;;;;;2.42;1.23;;;34.30;64.50;;;;;;5074738;28;20209;-81
2022/07/25 10:33:12;;;;;;;1.13;1.13;;;34.30;67.30;;;;;;5074934;28;20557;-80
2022/07/25 10:35:41;;;;;;;1.40;1.25;;;34.50;63.60;;;;;;5074566;28;20191;-81
2022/07/25 10:38:08;;;;;;;1.10;1.00;;;34.70;62.50;;;;;;5074425;28;20205;-80
2022/07/25 10:40:39;;;;;;;1.25;1.02;;;34.80;63.20;;;;;;5073890;28;20239;-80
2022/07/25 10:43:12;;;;;;;1.92;1.58;;;34.80;59.90;;;;;;5075344;28;20190;-83
2022/07/25 10:45:41;;;;;;;1.50;1.40;;;34.80;62.80;;;;;;5074270;28;20206;-81
2022/07/25 10:48:11;;;;;;;1.35;0.90;;;34.90;61.60;;;;;;5074469;28;20232;-81
2022/07/25 10:50:49;;;;;;;1.17;1.08;;;35.00;59.20;;;;;;5074163;28;20210;-81
2022/07/25 10:53:16;;;;;;;1.73;1.42;;;34.90;59.10;;;;;;5074082;28;20628;-80
2022/07/25 10:55:47;;;;;;;1.67;1.10;;;34.90;64.10;;;;;;5074144;28;20198;-81
2022/07/25 10:58:13;;;;;;;1.13;1.02;;;34.80;60.70;;;;;;5073983;28;20183;-81
2022/07/25 11:00:43;;;;;;;1.52;1.33;;;34.80;60.00;;;;;;5074247;28;20211;-81
2022/07/25 11:03:10;;;;;;;1.52;1.17;;;34.80;59.30;;;;;;5073145;28;20214;-81
2022/07/25 11:05:45;;;;;;;1.52;1.42;;;35.00;57.60;;;;;;5073992;28;20213;-81
2022/07/25 11:08:13;;;;;;;1.58;1.45;;;35.20;58.00;;;;;;5073581;28;20602;-80
2022/07/25 11:10:40;;;;;;;1.27;1.20;;;35.40;56.50;;;;;;5073851;28;20205;-81
2022/07/25 11:13:11;;;;;;;1.65;1.00;;;35.90;58.20;;;;;;5074047;28;20202;-81
2022/07/25 11:15:38;;;;;;;2.30;1.35;;;36.30;55.50;;;;;;5074660;28;20534;-81
2022/07/25 11:18:05;;;;;;;1.17;1.00;;;36.80;54.50;;;;;;5073912;28;20210;-81
2022/07/25 11:20:32;;;;;;;1.45;1.30;;;36.80;54.50;;;;;;5073288;28;20619;-81
2022/07/25 11:22:58;;;;;;;1.88;1.75;;;36.60;55.20;;;;;;5073673;28;20213;-81
2022/07/25 11:25:26;;;;;;;1.10;1.10;;;36.20;56.20;;;;;;5073271;28;20827;-81
2022/07/25 11:27:57;;;;;;;1.33;1.23;;;35.90;55.80;;;;;;5073590;28;20212;-80
2022/07/25 11:30:26;;;;;;;1.60;1.23;;;35.60;55.10;;;;;;5073253;28;20216;-82
2022/07/25 11:32:55;;;;;;;1.23;1.13;;;35.50;55.90;;;;;;5073816;28;20252;-81
2022/07/25 11:35:25;;;;;;;1.17;1.08;;;35.20;55.00;;;;;;5073468;28;20235;-80
2022/07/25 11:37:53;;;;;;;1.52;1.42;;;35.10;55.00;;;;;;5073638;28;20207;-80
2022/07/25 11:40:21;;;;;;;1.25;1.15;;;35.10;56.30;;;;;;5073208;28;20275;-81
2022/07/25 11:42:51;;;;;;;1.52;1.00;;;35.00;53.60;;;;;;5073411;28;20197;-80
2022/07/25 11:45:19;;;;;;;1.90;1.52;;;34.80;55.60;;;;;;5073319;28;20304;-81
2022/07/25 11:47:48;;;;;;;1.80;1.48;;;34.70;55.30;;;;;;5073415;28;20190;-81
2022/07/25 11:50:16;;;;;;;0.93;0.93;;;34.70;55.80;;;;;;5073305;28;20225;-80
2022/07/25 11:52:44;;;;;;;1.92;1.10;;;34.70;57.70;;;;;;5073396;28;20211;-81
2022/07/25 11:55:14;;;;;;;1.38;1.27;;;34.70;56.90;;;;;;5073539;28;20194;-81
2022/07/25 11:57:44;;;;;;;1.55;1.38;;;34.60;55.80;;;;;;5073013;28;20258;-81
2022/07/25 12:00:17;;;;;;;1.48;1.38;;;34.60;57.60;;;;;;5072949;28;20806;-81
2022/07/25 12:02:44;;;;;;;2.70;1.60;;;34.40;58.30;;;;;;5072986;28;20277;-80
2022/07/25 12:05:13;;;;;;;2.75;1.40;;;34.10;56.40;;;;;;5073153;28;20228;-80
2022/07/25 12:07:43;;;;;;;1.58;1.48;;;33.90;58.10;;;;;;5072879;28;20669;-81
2022/07/25 12:10:12;;;;;;;1.55;1.17;;;33.80;56.90;;;;;;5072856;28;20707;-81
2022/07/25 12:12:48;;;;;;;2.15;1.63;;;33.80;58.80;;;;;;5073931;28;20209;-81
2022/07/25 12:15:19;;;;;;;2.05;1.60;;;33.80;59.20;;;;;;5075431;28;20669;-81
2022/07/25 12:17:46;;;;;;;1.45;1.13;;;33.90;59.40;;;;;;5076885;28;20192;-80
2022/07/25 12:20:16;;;;;;;1.25;1.17;;;34.00;58.20;;;;;;5077054;28;20224;-80
2022/07/25 12:22:44;;;;;;;1.27;1.17;;;34.00;58.10;;;;;;5077077;28;20203;-81
2022/07/25 12:25:12;;;;;;;1.52;1.42;;;34.00;55.90;;;;;;5076976;28;20224;-80
2022/07/25 12:27:38;;;;;;;1.00;0.95;;;34.00;56.60;;;;;;5076993;28;20184;-80
2022/07/25 12:30:07;;;;;;;1.45;1.17;;;33.80;55.70;;;;;;5076518;28;20707;-80
2022/07/25 12:32:35;;;;;;;1.35;1.20;;;33.80;55.30;;;;;;5077060;28;20208;-81
2022/07/25 12:35:02;;;;;;;1.10;1.00;;;33.70;55.60;;;;;;5076915;28;20196;-80
2022/07/25 12:37:29;;;;;;;0.70;0.70;;;33.60;55.10;;;;;;5076722;28;20199;-80
2022/07/25 12:39:56;;;;;;;2.20;1.25;;;33.40;56.00;;;;;;5076420;28;20227;-81
2022/07/25 12:42:23;;;;;;;1.30;1.15;;;33.20;58.30;;;;;;5076696;28;20193;-80
2022/07/25 12:44:50;;;;;;;1.63;1.52;;;33.10;60.50;;;;;;5076492;28;20230;-80
2022/07/25 12:47:16;;;;;;;2.67;1.55;;;32.90;60.50;;;;;;5076782;28;20210;-80
2022/07/25 12:49:44;;;;;;;1.48;1.02;;;32.80;58.50;;;;;;5076456;28;20227;-81
2022/07/25 12:52:11;;;;;;;1.63;1.50;;;32.70;59.10;;;;;;5076454;28;20202;-80
2022/07/25 12:54:38;;;;;;;2.15;1.40;;;32.70;61.10;;;;;;5076439;28;20215;-80